sensor_id;sensor_type;location;lat;lon;timestamp;pressure;altitude;pressure_sealevel;temperature;humidity
16355;BME280;8287;51.644;8.494;2023-01-29T00:00:07;101760.19;;;0.80;76.42
16355;BME280;8287;51.644;8.494;2023-01-29T00:02:34;101757.78;;;0.78;76.25
16355;BME280;8287;51.644;8.494;2023-01-29T00:05:01;101752.00;;;0.76;76.46
16355;BME280;8287;51.644;8.494;2023-01-29T00:07:28;101754.59;;;0.76;76.45
16355;BME280;8287;51.644;8.494;2023-01-29T00:09:55;101754.16;;;0.79;76.58
16355;BME280;8287;51.644;8.494;2023-01-29T00:12:22;101746.97;;;0.81;76.22
16355;BME280;8287;51.644;8.494;2023-01-29T00:14:48;101750.59;;;0.80;76.15
16355;BME280;8287;51.644;8.494;2023-01-29T00:17:16;101743.75;;;0.79;76.29
16355;BME280;8287;51.644;8.494;2023-01-29T00:19:43;101735.75;;;0.74;76.42
16355;BME280;8287;51.644;8.494;2023-01-29T00:22:09;101728.31;;;0.78;76.58
16355;BME280;8287;51.644;8.494;2023-01-29T00:24:36;101729.53;;;0.75;76.27
16355;BME280;8287;51.644;8.494;2023-01-29T00:27:02;101719.72;;;0.71;76.23
16355;BME280;8287;51.644;8.494;2023-01-29T00:29:30;101715.31;;;0.58;76.50
16355;BME280;8287;51.644;8.494;2023-01-29T00:31:56;101715.53;;;0.63;76.76
16355;BME280;8287;51.644;8.494;2023-01-29T00:34:24;101714.72;;;0.63;76.87
16355;BME280;8287;51.644;8.494;2023-01-29T00:36:51;101716.94;;;0.59;76.82
16355;BME280;8287;51.644;8.494;2023-01-29T00:39:29;101717.34;;;0.56;76.82
16355;BME280;8287;51.644;8.494;2023-01-29T00:42:02;101709.31;;;0.51;76.71
16355;BME280;8287;51.644;8.494;2023-01-29T00:44:46;101709.16;;;0.46;77.01
16355;BME280;8287;51.644;8.494;2023-01-29T00:47:25;101705.97;;;0.31;77.21
16355;BME280;8287;51.644;8.494;2023-01-29T00:50:00;101700.38;;;0.28;77.11
16355;BME280;8287;51.644;8.494;2023-01-29T00:52:27;101700.75;;;0.38;77.34
16355;BME280;8287;51.644;8.494;2023-01-29T00:54:55;101710.16;;;0.39;76.92
16355;BME280;8287;51.644;8.494;2023-01-29T00:57:23;101710.56;;;0.36;77.05
16355;BME280;8287;51.644;8.494;2023-01-29T00:59:49;101719.59;;;0.33;76.95
16355;BME280;8287;51.644;8.494;2023-01-29T01:02:16;101714.97;;;0.35;77.12
16355;BME280;8287;51.644;8.494;2023-01-29T01:05:02;101717.19;;;0.32;77.07
16355;BME280;8287;51.644;8.494;2023-01-29T01:07:32;101725.41;;;0.35;76.73
16355;BME280;8287;51.644;8.494;2023-01-29T01:09:59;101728.41;;;0.32;76.75
16355;BME280;8287;51.644;8.494;2023-01-29T01:12:43;101726.63;;;0.26;76.80
16355;BME280;8287;51.644;8.494;2023-01-29T01:15:09;101736.03;;;0.27;76.51
16355;BME280;8287;51.644;8.494;2023-01-29T01:17:36;101727.44;;;0.27;77.00
16355;BME280;8287;51.644;8.494;2023-01-29T01:20:05;101737.84;;;0.27;76.81
16355;BME280;8287;51.644;8.494;2023-01-29T01:22:31;101740.66;;;0.12;76.69
16355;BME280;8287;51.644;8.494;2023-01-29T01:24:58;101736.66;;;-0.03;77.05
16355;BME280;8287;51.644;8.494;2023-01-29T01:27:24;101737.66;;;0.02;77.75
16355;BME280;8287;51.644;8.494;2023-01-29T01:29:51;101743.25;;;0.06;78.18
16355;BME280;8287;51.644;8.494;2023-01-29T01:32:18;101743.50;;;0.04;78.55
16355;BME280;8287;51.644;8.494;2023-01-29T01:34:44;101729.84;;;-0.10;78.23
16355;BME280;8287;51.644;8.494;2023-01-29T01:37:12;101731.63;;;-0.05;78.64
16355;BME280;8287;51.644;8.494;2023-01-29T01:39:39;101722.63;;;-0.08;78.39
16355;BME280;8287;51.644;8.494;2023-01-29T01:42:10;101726.44;;;-0.17;78.19
16355;BME280;8287;51.644;8.494;2023-01-29T01:44:52;101724.03;;;-0.25;78.68
16355;BME280;8287;51.644;8.494;2023-01-29T01:47:22;101712.22;;;-0.34;78.57
16355;BME280;8287;51.644;8.494;2023-01-29T01:49:50;101709.38;;;-0.39;78.74
16355;BME280;8287;51.644;8.494;2023-01-29T01:52:19;101704.38;;;-0.47;78.89
16355;BME280;8287;51.644;8.494;2023-01-29T01:54:47;101692.38;;;-0.35;79.63
16355;BME280;8287;51.644;8.494;2023-01-29T01:57:17;101683.75;;;-0.36;79.13
16355;BME280;8287;51.644;8.494;2023-01-29T01:59:53;101689.78;;;-0.35;79.62
16355;BME280;8287;51.644;8.494;2023-01-29T02:02:21;101686.97;;;-0.34;79.79
16355;BME280;8287;51.644;8.494;2023-01-29T02:05:06;101692.75;;;-0.38;79.15
16355;BME280;8287;51.644;8.494;2023-01-29T02:07:52;101692.56;;;-0.43;79.47
16355;BME280;8287;51.644;8.494;2023-01-29T02:10:40;101693.97;;;-0.47;79.43
16355;BME280;8287;51.644;8.494;2023-01-29T02:13:07;101694.19;;;-0.49;79.68
16355;BME280;8287;51.644;8.494;2023-01-29T02:15:34;101706.38;;;-0.62;80.04
16355;BME280;8287;51.644;8.494;2023-01-29T02:18:01;101703.19;;;-0.58;80.62
16355;BME280;8287;51.644;8.494;2023-01-29T02:20:29;101696.53;;;-0.73;80.42
16355;BME280;8287;51.644;8.494;2023-01-29T02:23:20;101692.72;;;-0.64;81.20
16355;BME280;8287;51.644;8.494;2023-01-29T02:26:11;101703.72;;;-0.69;80.86
16355;BME280;8287;51.644;8.494;2023-01-29T02:28:46;101708.97;;;-0.62;80.96
16355;BME280;8287;51.644;8.494;2023-01-29T02:31:25;101702.94;;;-0.69;80.71
16355;BME280;8287;51.644;8.494;2023-01-29T02:33:59;101721.56;;;-0.66;81.20
16355;BME280;8287;51.644;8.494;2023-01-29T02:36:33;101727.16;;;-0.69;80.79
16355;BME280;8287;51.644;8.494;2023-01-29T02:39:10;101727.72;;;-0.86;81.10
16355;BME280;8287;51.644;8.494;2023-01-29T02:41:43;101727.88;;;-0.94;81.31
16355;BME280;8287;51.644;8.494;2023-01-29T02:44:19;101719.28;;;-0.88;81.50
16355;BME280;8287;51.644;8.494;2023-01-29T02:46:56;101710.88;;;-0.90;81.62
16355;BME280;8287;51.644;8.494;2023-01-29T02:49:31;101706.91;;;-0.86;81.65
16355;BME280;8287;51.644;8.494;2023-01-29T02:52:02;101704.13;;;-0.78;81.66
16355;BME280;8287;51.644;8.494;2023-01-29T02:54:40;101704.91;;;-0.84;81.45
16355;BME280;8287;51.644;8.494;2023-01-29T02:57:13;101709.50;;;-0.86;81.64
16355;BME280;8287;51.644;8.494;2023-01-29T02:59:45;101719.09;;;-0.80;81.26
16355;BME280;8287;51.644;8.494;2023-01-29T03:02:16;101728.31;;;-0.84;81.25
16355;BME280;8287;51.644;8.494;2023-01-29T03:04:48;101737.72;;;-0.83;81.01
16355;BME280;8287;51.644;8.494;2023-01-29T03:07:18;101733.28;;;-0.89;80.82
16355;BME280;8287;51.644;8.494;2023-01-29T03:10:03;101736.91;;;-0.90;80.77
16355;BME280;8287;51.644;8.494;2023-01-29T03:12:34;101737.69;;;-0.96;80.48
16355;BME280;8287;51.644;8.494;2023-01-29T03:15:07;101740.66;;;-0.99;80.42
16355;BME280;8287;51.644;8.494;2023-01-29T03:17:42;101734.03;;;-1.02;80.66
16355;BME280;8287;51.644;8.494;2023-01-29T03:20:14;101733.69;;;-0.99;80.51
16355;BME280;8287;51.644;8.494;2023-01-29T03:22:44;101733.47;;;-0.97;80.64
16355;BME280;8287;51.644;8.494;2023-01-29T03:25:17;101726.41;;;-1.10;80.64
16355;BME280;8287;51.644;8.494;2023-01-29T03:28:04;101715.25;;;-1.04;81.04
16355;BME280;8287;51.644;8.494;2023-01-29T03:30:53;101714.03;;;-1.08;80.75
16355;BME280;8287;51.644;8.494;2023-01-29T03:33:42;101711.63;;;-1.03;81.17
16355;BME280;8287;51.644;8.494;2023-01-29T03:36:13;101706.84;;;-0.99;80.99
16355;BME280;8287;51.644;8.494;2023-01-29T03:38:43;101710.63;;;-1.02;81.11
16355;BME280;8287;51.644;8.494;2023-01-29T03:41:15;101713.63;;;-1.11;81.21
16355;BME280;8287;51.644;8.494;2023-01-29T03:43:48;101705.81;;;-1.11;81.35
16355;BME280;8287;51.644;8.494;2023-01-29T03:46:21;101706.03;;;-1.06;81.41
16355;BME280;8287;51.644;8.494;2023-01-29T03:48:56;101715.59;;;-1.13;81.52
16355;BME280;8287;51.644;8.494;2023-01-29T03:51:27;101709.63;;;-1.07;81.71
16355;BME280;8287;51.644;8.494;2023-01-29T03:54:04;101706.97;;;-1.20;81.62
16355;BME280;8287;51.644;8.494;2023-01-29T03:56:38;101696.19;;;-1.17;81.94
16355;BME280;8287;51.644;8.494;2023-01-29T03:59:23;101691.16;;;-1.19;81.96
16355;BME280;8287;51.644;8.494;2023-01-29T04:01:54;101700.97;;;-1.21;81.89
16355;BME280;8287;51.644;8.494;2023-01-29T04:04:23;101701.19;;;-1.16;82.10
16355;BME280;8287;51.644;8.494;2023-01-29T04:06:55;101701.19;;;-1.16;82.45
16355;BME280;8287;51.644;8.494;2023-01-29T04:09:28;101694.78;;;-1.13;82.36
16355;BME280;8287;51.644;8.494;2023-01-29T04:12:01;101691.63;;;-1.09;82.70
16355;BME280;8287;51.644;8.494;2023-01-29T04:14:30;101684.84;;;-1.03;82.74
16355;BME280;8287;51.644;8.494;2023-01-29T04:17:00;101683.03;;;-1.03;82.42
16355;BME280;8287;51.644;8.494;2023-01-29T04:19:29;101676.66;;;-1.00;82.73
16355;BME280;8287;51.644;8.494;2023-01-29T04:22:01;101686.28;;;-0.94;82.57
16355;BME280;8287;51.644;8.494;2023-01-29T04:24:29;101681.44;;;-0.97;82.67
16355;BME280;8287;51.644;8.494;2023-01-29T04:27:02;101674.69;;;-0.92;82.64
16355;BME280;8287;51.644;8.494;2023-01-29T04:29:49;101662.06;;;-0.88;82.01
16355;BME280;8287;51.644;8.494;2023-01-29T04:32:26;101661.69;;;-0.79;81.77
16355;BME280;8287;51.644;8.494;2023-01-29T04:34:59;101663.09;;;-0.76;82.01
16355;BME280;8287;51.644;8.494;2023-01-29T04:37:34;101671.13;;;-0.65;81.78
16355;BME280;8287;51.644;8.494;2023-01-29T04:40:09;101665.13;;;-0.65;81.31
16355;BME280;8287;51.644;8.494;2023-01-29T04:42:43;101649.72;;;-0.60;81.41
16355;BME280;8287;51.644;8.494;2023-01-29T04:45:18;101635.50;;;-0.58;81.66
16355;BME280;8287;51.644;8.494;2023-01-29T04:47:53;101625.09;;;-0.51;81.60
16355;BME280;8287;51.644;8.494;2023-01-29T04:50:27;101623.47;;;-0.59;81.74
16355;BME280;8287;51.644;8.494;2023-01-29T04:52:58;101616.47;;;-0.52;81.68
16355;BME280;8287;51.644;8.494;2023-01-29T04:55:31;101617.09;;;-0.50;81.56
16355;BME280;8287;51.644;8.494;2023-01-29T04:58:05;101612.06;;;-0.38;81.69
16355;BME280;8287;51.644;8.494;2023-01-29T05:00:38;101613.88;;;-0.32;80.96
16355;BME280;8287;51.644;8.494;2023-01-29T05:03:08;101597.47;;;-0.33;80.60
16355;BME280;8287;51.644;8.494;2023-01-29T05:05:37;101594.03;;;-0.27;80.81
16355;BME280;8287;51.644;8.494;2023-01-29T05:08:05;101581.41;;;-0.23;80.78
16355;BME280;8287;51.644;8.494;2023-01-29T05:10:34;101587.00;;;-0.20;80.66
16355;BME280;8287;51.644;8.494;2023-01-29T05:13:04;101587.22;;;-0.15;80.63
16355;BME280;8287;51.644;8.494;2023-01-29T05:15:36;101584.00;;;-0.23;81.32
16355;BME280;8287;51.644;8.494;2023-01-29T05:18:04;101572.19;;;-0.19;81.34
16355;BME280;8287;51.644;8.494;2023-01-29T05:20:35;101567.38;;;-0.09;81.37
16355;BME280;8287;51.644;8.494;2023-01-29T05:23:03;101572.00;;;-0.11;80.89
16355;BME280;8287;51.644;8.494;2023-01-29T05:25:31;101562.94;;;-0.09;81.33
16355;BME280;8287;51.644;8.494;2023-01-29T05:27:59;101557.94;;;-0.04;81.21
16355;BME280;8287;51.644;8.494;2023-01-29T05:30:35;101565.94;;;0.01;81.07
16355;BME280;8287;51.644;8.494;2023-01-29T05:33:02;101575.75;;;0.05;81.22
16355;BME280;8287;51.644;8.494;2023-01-29T05:35:29;101566.69;;;0.08;81.18
16355;BME280;8287;51.644;8.494;2023-01-29T05:37:57;101584.56;;;0.04;81.61
16355;BME280;8287;51.644;8.494;2023-01-29T05:40:24;101580.97;;;0.05;81.81
16355;BME280;8287;51.644;8.494;2023-01-29T05:42:50;101582.34;;;0.08;82.03
16355;BME280;8287;51.644;8.494;2023-01-29T05:45:18;101580.72;;;0.07;81.92
16355;BME280;8287;51.644;8.494;2023-01-29T05:47:45;101588.94;;;0.10;82.26
16355;BME280;8287;51.644;8.494;2023-01-29T05:50:13;101598.19;;;0.06;82.37
16355;BME280;8287;51.644;8.494;2023-01-29T05:52:40;101604.78;;;0.15;82.87
16355;BME280;8287;51.644;8.494;2023-01-29T05:55:09;101610.38;;;0.19;82.65
16355;BME280;8287;51.644;8.494;2023-01-29T05:57:36;101601.72;;;0.25;82.49
16355;BME280;8287;51.644;8.494;2023-01-29T06:00:04;101597.09;;;0.33;82.23
16355;BME280;8287;51.644;8.494;2023-01-29T06:02:31;101591.69;;;0.35;81.87
16355;BME280;8287;51.644;8.494;2023-01-29T06:04:57;101595.06;;;0.35;81.69
16355;BME280;8287;51.644;8.494;2023-01-29T06:07:24;101595.66;;;0.37;81.70
16355;BME280;8287;51.644;8.494;2023-01-29T06:09:51;101604.69;;;0.41;81.74
16355;BME280;8287;51.644;8.494;2023-01-29T06:12:19;101605.25;;;0.50;81.79
16355;BME280;8287;51.644;8.494;2023-01-29T06:14:45;101625.66;;;0.59;81.25
16355;BME280;8287;51.644;8.494;2023-01-29T06:17:12;101632.66;;;0.65;80.90
16355;BME280;8287;51.644;8.494;2023-01-29T06:19:38;101637.34;;;0.50;81.78
16355;BME280;8287;51.644;8.494;2023-01-29T06:22:05;101651.78;;;0.53;82.41
16355;BME280;8287;51.644;8.494;2023-01-29T06:24:32;101643.50;;;0.62;82.08
16355;BME280;8287;51.644;8.494;2023-01-29T06:26:58;101643.88;;;0.72;81.85
16355;BME280;8287;51.644;8.494;2023-01-29T06:29:26;101642.66;;;0.68;81.23
16355;BME280;8287;51.644;8.494;2023-01-29T06:31:52;101627.03;;;0.68;82.07
16355;BME280;8287;51.644;8.494;2023-01-29T06:34:19;101627.38;;;0.78;82.16
16355;BME280;8287;51.644;8.494;2023-01-29T06:36:46;101620.94;;;0.81;81.94
16355;BME280;8287;51.644;8.494;2023-01-29T06:39:12;101632.59;;;0.85;81.93
16355;BME280;8287;51.644;8.494;2023-01-29T06:41:39;101629.34;;;0.83;81.93
16355;BME280;8287;51.644;8.494;2023-01-29T06:44:05;101644.63;;;0.79;81.85
16355;BME280;8287;51.644;8.494;2023-01-29T06:46:33;101641.44;;;0.77;82.11
16355;BME280;8287;51.644;8.494;2023-01-29T06:49:00;101652.88;;;0.76;82.29
16355;BME280;8287;51.644;8.494;2023-01-29T06:51:26;101648.66;;;0.75;82.38
16355;BME280;8287;51.644;8.494;2023-01-29T06:53:53;101650.47;;;0.75;82.40
16355;BME280;8287;51.644;8.494;2023-01-29T06:56:20;101655.81;;;0.86;82.57
16355;BME280;8287;51.644;8.494;2023-01-29T06:58:47;101663.50;;;0.81;82.38
16355;BME280;8287;51.644;8.494;2023-01-29T07:01:14;101660.25;;;0.86;82.57
16355;BME280;8287;51.644;8.494;2023-01-29T07:03:42;101663.66;;;0.93;82.58
16355;BME280;8287;51.644;8.494;2023-01-29T07:06:09;101657.56;;;0.99;82.65
16355;BME280;8287;51.644;8.494;2023-01-29T07:08:36;101655.34;;;1.02;82.69
16355;BME280;8287;51.644;8.494;2023-01-29T07:11:02;101671.78;;;1.09;82.69
16355;BME280;8287;51.644;8.494;2023-01-29T07:13:29;101660.16;;;1.05;82.78
16355;BME280;8287;51.644;8.494;2023-01-29T07:15:57;101659.34;;;1.05;82.64
16355;BME280;8287;51.644;8.494;2023-01-29T07:18:23;101655.94;;;1.04;82.70
16355;BME280;8287;51.644;8.494;2023-01-29T07:20:51;101645.69;;;1.09;82.64
16355;BME280;8287;51.644;8.494;2023-01-29T07:23:18;101624.38;;;1.12;82.63
16355;BME280;8287;51.644;8.494;2023-01-29T07:25:44;101627.22;;;1.11;82.16
16355;BME280;8287;51.644;8.494;2023-01-29T07:28:14;101635.56;;;1.19;82.11
16355;BME280;8287;51.644;8.494;2023-01-29T07:30:40;101634.06;;;1.05;81.53
16355;BME280;8287;51.644;8.494;2023-01-29T07:33:08;101636.00;;;1.16;81.71
16355;BME280;8287;51.644;8.494;2023-01-29T07:35:36;101636.59;;;1.18;81.53
16355;BME280;8287;51.644;8.494;2023-01-29T07:38:05;101631.53;;;1.23;81.53
16355;BME280;8287;51.644;8.494;2023-01-29T07:40:31;101630.94;;;1.21;81.43
16355;BME280;8287;51.644;8.494;2023-01-29T07:42:59;101640.97;;;1.24;81.49
16355;BME280;8287;51.644;8.494;2023-01-29T07:45:26;101637.09;;;1.33;81.56
16355;BME280;8287;51.644;8.494;2023-01-29T07:47:52;101640.13;;;1.30;81.36
16355;BME280;8287;51.644;8.494;2023-01-29T07:50:19;101632.84;;;1.39;81.58
16355;BME280;8287;51.644;8.494;2023-01-29T07:52:46;101641.69;;;1.38;81.27
16355;BME280;8287;51.644;8.494;2023-01-29T07:55:14;101637.69;;;1.35;81.32
16355;BME280;8287;51.644;8.494;2023-01-29T07:57:41;101631.41;;;1.43;81.19
16355;BME280;8287;51.644;8.494;2023-01-29T08:00:09;101627.41;;;1.40;80.83
16355;BME280;8287;51.644;8.494;2023-01-29T08:02:36;101622.19;;;1.40;80.97
16355;BME280;8287;51.644;8.494;2023-01-29T08:05:03;101621.16;;;1.41;80.80
16355;BME280;8287;51.644;8.494;2023-01-29T08:07:30;101613.16;;;1.36;81.06
16355;BME280;8287;51.644;8.494;2023-01-29T08:09:57;101613.13;;;1.43;81.04
16355;BME280;8287;51.644;8.494;2023-01-29T08:12:24;101627.16;;;1.48;80.99
16355;BME280;8287;51.644;8.494;2023-01-29T08:14:51;101631.50;;;1.54;80.83
16355;BME280;8287;51.644;8.494;2023-01-29T08:17:18;101625.06;;;1.57;80.88
16355;BME280;8287;51.644;8.494;2023-01-29T08:19:44;101602.00;;;1.54;81.02
16355;BME280;8287;51.644;8.494;2023-01-29T08:22:11;101595.91;;;1.60;80.65
16355;BME280;8287;51.644;8.494;2023-01-29T08:24:39;101590.69;;;1.60;81.13
16355;BME280;8287;51.644;8.494;2023-01-29T08:27:06;101582.25;;;1.58;80.87
16355;BME280;8287;51.644;8.494;2023-01-29T08:29:34;101599.88;;;1.62;80.92
16355;BME280;8287;51.644;8.494;2023-01-29T08:32:01;101604.41;;;1.55;80.84
16355;BME280;8287;51.644;8.494;2023-01-29T08:34:27;101596.06;;;1.65;81.36
16355;BME280;8287;51.644;8.494;2023-01-29T08:36:54;101601.47;;;1.63;81.07
16355;BME280;8287;51.644;8.494;2023-01-29T08:39:20;101596.44;;;1.68;81.27
16355;BME280;8287;51.644;8.494;2023-01-29T08:41:47;101574.69;;;1.74;81.24
16355;BME280;8287;51.644;8.494;2023-01-29T08:44:14;101558.34;;;1.79;81.30
16355;BME280;8287;51.644;8.494;2023-01-29T08:46:42;101541.81;;;1.85;81.39
16355;BME280;8287;51.644;8.494;2023-01-29T08:49:09;101539.50;;;1.95;81.07
16355;BME280;8287;51.644;8.494;2023-01-29T08:51:36;101534.28;;;1.95;80.90
16355;BME280;8287;51.644;8.494;2023-01-29T08:54:02;101536.22;;;1.99;81.10
16355;BME280;8287;51.644;8.494;2023-01-29T08:56:29;101521.84;;;2.08;80.85
16355;BME280;8287;51.644;8.494;2023-01-29T08:58:55;101526.72;;;2.05;81.06
16355;BME280;8287;51.644;8.494;2023-01-29T09:01:22;101530.06;;;2.12;80.71
16355;BME280;8287;51.644;8.494;2023-01-29T09:03:50;101542.47;;;2.16;81.03
16355;BME280;8287;51.644;8.494;2023-01-29T09:06:17;101541.25;;;2.30;80.79
16355;BME280;8287;51.644;8.494;2023-01-29T09:08:44;101532.34;;;2.38;80.42
16355;BME280;8287;51.644;8.494;2023-01-29T09:11:10;101540.66;;;2.46;80.37
16355;BME280;8287;51.644;8.494;2023-01-29T09:13:37;101539.00;;;2.52;80.39
16355;BME280;8287;51.644;8.494;2023-01-29T09:16:04;101550.97;;;2.59;80.10
16355;BME280;8287;51.644;8.494;2023-01-29T09:18:31;101547.00;;;2.68;80.01
16355;BME280;8287;51.644;8.494;2023-01-29T09:20:59;101545.22;;;2.69;79.51
16355;BME280;8287;51.644;8.494;2023-01-29T09:23:27;101525.19;;;2.74;79.78
16355;BME280;8287;51.644;8.494;2023-01-29T09:25:54;101517.44;;;2.79;79.40
16355;BME280;8287;51.644;8.494;2023-01-29T09:28:21;101518.63;;;2.83;79.59
16355;BME280;8287;51.644;8.494;2023-01-29T09:30:48;101514.31;;;2.89;79.22
16355;BME280;8287;51.644;8.494;2023-01-29T09:33:14;101515.91;;;2.90;79.71
16355;BME280;8287;51.644;8.494;2023-01-29T09:35:43;101513.16;;;2.96;79.35
16355;BME280;8287;51.644;8.494;2023-01-29T09:38:12;101524.22;;;2.98;79.31
16355;BME280;8287;51.644;8.494;2023-01-29T09:40:46;101516.84;;;3.07;79.37
16355;BME280;8287;51.644;8.494;2023-01-29T09:43:17;101525.59;;;3.12;79.36
16355;BME280;8287;51.644;8.494;2023-01-29T09:45:52;101529.59;;;3.14;79.18
16355;BME280;8287;51.644;8.494;2023-01-29T09:48:21;101524.03;;;3.22;79.01
16355;BME280;8287;51.644;8.494;2023-01-29T09:50:51;101515.72;;;3.25;78.76
16355;BME280;8287;51.644;8.494;2023-01-29T09:53:25;101526.19;;;3.37;78.82
16355;BME280;8287;51.644;8.494;2023-01-29T09:56:00;101520.06;;;3.43;78.62
16355;BME280;8287;51.644;8.494;2023-01-29T09:58:30;101521.78;;;3.49;78.49
16355;BME280;8287;51.644;8.494;2023-01-29T10:01:07;101523.69;;;3.53;77.93
16355;BME280;8287;51.644;8.494;2023-01-29T10:03:52;101518.00;;;3.56;78.05
16355;BME280;8287;51.644;8.494;2023-01-29T10:06:26;101512.53;;;3.58;77.43
16355;BME280;8287;51.644;8.494;2023-01-29T10:12:33;101511.38;;;3.65;77.21
16355;BME280;8287;51.644;8.494;2023-01-29T10:15:08;101520.19;;;3.48;76.21
16355;BME280;8287;51.644;8.494;2023-01-29T10:17:53;101519.16;;;3.37;76.24
16355;BME280;8287;51.644;8.494;2023-01-29T10:20:41;101516.19;;;3.34;76.91
16355;BME280;8287;51.644;8.494;2023-01-29T10:23:26;101514.81;;;3.54;76.76
16355;BME280;8287;51.644;8.494;2023-01-29T10:25:55;101510.47;;;3.60;76.09
16355;BME280;8287;51.644;8.494;2023-01-29T10:28:27;101508.28;;;3.68;76.43
16355;BME280;8287;51.644;8.494;2023-01-29T10:30:59;101498.63;;;3.57;75.09
16355;BME280;8287;51.644;8.494;2023-01-29T10:33:30;101497.94;;;3.62;75.67
16355;BME280;8287;51.644;8.494;2023-01-29T10:36:02;101484.84;;;3.62;76.15
16355;BME280;8287;51.644;8.494;2023-01-29T10:38:41;101471.38;;;3.70;76.18
16355;BME280;8287;51.644;8.494;2023-01-29T10:41:26;101478.16;;;3.94;75.77
16355;BME280;8287;51.644;8.494;2023-01-29T10:44:11;101470.84;;;3.96;75.38
16355;BME280;8287;51.644;8.494;2023-01-29T10:46:58;101461.94;;;4.08;75.50
16355;BME280;8287;51.644;8.494;2023-01-29T10:49:53;101448.69;;;4.15;75.19
16355;BME280;8287;51.644;8.494;2023-01-29T10:52:37;101454.56;;;4.22;75.09
16355;BME280;8287;51.644;8.494;2023-01-29T10:55:17;101442.16;;;4.17;75.23
16355;BME280;8287;51.644;8.494;2023-01-29T10:57:58;101438.59;;;4.23;74.85
16355;BME280;8287;51.644;8.494;2023-01-29T11:00:34;101449.31;;;4.22;74.94
16355;BME280;8287;51.644;8.494;2023-01-29T11:03:12;101433.31;;;4.35;74.99
16355;BME280;8287;51.644;8.494;2023-01-29T11:05:43;101433.47;;;4.45;74.97
16355;BME280;8287;51.644;8.494;2023-01-29T11:08:18;101436.97;;;4.50;74.83
16355;BME280;8287;51.644;8.494;2023-01-29T11:10:53;101429.66;;;4.52;74.65
16355;BME280;8287;51.644;8.494;2023-01-29T11:13:25;101424.31;;;4.31;74.62
16355;BME280;8287;51.644;8.494;2023-01-29T11:15:56;101415.03;;;4.56;74.03
16355;BME280;8287;51.644;8.494;2023-01-29T11:18:22;101417.91;;;4.55;73.07
16355;BME280;8287;51.644;8.494;2023-01-29T11:20:59;101406.56;;;4.66;73.52
16355;BME280;8287;51.644;8.494;2023-01-29T11:23:29;101412.34;;;4.68;73.32
16355;BME280;8287;51.644;8.494;2023-01-29T11:25:57;101405.72;;;4.82;72.66
16355;BME280;8287;51.644;8.494;2023-01-29T11:28:38;101403.91;;;4.82;72.45
16355;BME280;8287;51.644;8.494;2023-01-29T11:31:17;101402.88;;;4.83;71.88
16355;BME280;8287;51.644;8.494;2023-01-29T11:33:44;101403.00;;;4.93;72.27
16355;BME280;8287;51.644;8.494;2023-01-29T11:36:28;101397.03;;;4.98;71.95
16355;BME280;8287;51.644;8.494;2023-01-29T11:39:15;101392.69;;;5.03;71.40
16355;BME280;8287;51.644;8.494;2023-01-29T11:41:47;101388.19;;;5.04;71.18
16355;BME280;8287;51.644;8.494;2023-01-29T11:44:18;101382.94;;;5.04;71.10
16355;BME280;8287;51.644;8.494;2023-01-29T11:46:46;101382.31;;;5.13;71.71
16355;BME280;8287;51.644;8.494;2023-01-29T11:49:21;101376.66;;;5.05;70.98
16355;BME280;8287;51.644;8.494;2023-01-29T11:51:52;101364.97;;;5.12;71.45
16355;BME280;8287;51.644;8.494;2023-01-29T11:54:27;101357.63;;;5.14;71.34
16355;BME280;8287;51.644;8.494;2023-01-29T11:56:56;101362.66;;;5.16;70.77
16355;BME280;8287;51.644;8.494;2023-01-29T11:59:36;101364.81;;;5.24;71.01
16355;BME280;8287;51.644;8.494;2023-01-29T12:02:13;101353.47;;;5.18;70.39
16355;BME280;8287;51.644;8.494;2023-01-29T12:04:43;101354.97;;;4.93;70.37
16355;BME280;8287;51.644;8.494;2023-01-29T12:07:11;101342.59;;;5.10;70.50
16355;BME280;8287;51.644;8.494;2023-01-29T12:09:39;101347.72;;;5.00;70.60
16355;BME280;8287;51.644;8.494;2023-01-29T12:12:17;101350.78;;;5.13;71.08
16355;BME280;8287;51.644;8.494;2023-01-29T12:15:02;101349.88;;;5.24;69.87
16355;BME280;8287;51.644;8.494;2023-01-29T12:17:32;101333.13;;;5.30;70.12
16355;BME280;8287;51.644;8.494;2023-01-29T12:20:08;101335.25;;;5.12;69.67
16355;BME280;8287;51.644;8.494;2023-01-29T12:22:44;101328.34;;;5.27;69.88
16355;BME280;8287;51.644;8.494;2023-01-29T12:25:19;101315.59;;;5.36;70.51
16355;BME280;8287;51.644;8.494;2023-01-29T12:27:52;101306.91;;;5.35;70.13
16355;BME280;8287;51.644;8.494;2023-01-29T12:30:24;101307.09;;;5.29;69.60
16355;BME280;8287;51.644;8.494;2023-01-29T12:33:00;101304.97;;;5.26;69.89
16355;BME280;8287;51.644;8.494;2023-01-29T12:35:31;101301.91;;;5.34;69.80
16355;BME280;8287;51.644;8.494;2023-01-29T12:38:01;101289.00;;;5.32;69.13
16355;BME280;8287;51.644;8.494;2023-01-29T12:40:33;101281.38;;;5.31;69.27
16355;BME280;8287;51.644;8.494;2023-01-29T12:43:12;101281.88;;;5.28;68.96
16355;BME280;8287;51.644;8.494;2023-01-29T12:45:41;101273.38;;;5.21;69.10
16355;BME280;8287;51.644;8.494;2023-01-29T12:48:13;101273.25;;;5.32;69.01
16355;BME280;8287;51.644;8.494;2023-01-29T12:50:39;101268.13;;;5.21;69.01
16355;BME280;8287;51.644;8.494;2023-01-29T12:53:19;101263.91;;;5.20;69.22
16355;BME280;8287;51.644;8.494;2023-01-29T12:55:51;101259.81;;;5.29;69.55
16355;BME280;8287;51.644;8.494;2023-01-29T12:58:22;101250.72;;;5.15;69.28
16355;BME280;8287;51.644;8.494;2023-01-29T13:00:55;101251.22;;;5.12;70.13
16355;BME280;8287;51.644;8.494;2023-01-29T13:03:28;101253.53;;;5.08;70.18
16355;BME280;8287;51.644;8.494;2023-01-29T13:05:56;101242.47;;;5.06;70.34
16355;BME280;8287;51.644;8.494;2023-01-29T13:08:29;101252.25;;;5.11;70.60
16355;BME280;8287;51.644;8.494;2023-01-29T13:11:01;101252.91;;;5.23;70.10
16355;BME280;8287;51.644;8.494;2023-01-29T13:13:32;101241.06;;;5.20;69.72
16355;BME280;8287;51.644;8.494;2023-01-29T13:16:02;101245.59;;;5.25;69.61
16355;BME280;8287;51.644;8.494;2023-01-29T13:18:39;101248.69;;;5.22;69.46
16355;BME280;8287;51.644;8.494;2023-01-29T13:21:12;101245.47;;;5.15;69.51
16355;BME280;8287;51.644;8.494;2023-01-29T13:23:42;101246.03;;;5.17;69.37
16355;BME280;8287;51.644;8.494;2023-01-29T13:26:10;101245.34;;;5.05;69.43
16355;BME280;8287;51.644;8.494;2023-01-29T13:28:38;101241.81;;;5.16;69.79
16355;BME280;8287;51.644;8.494;2023-01-29T13:31:17;101233.88;;;5.11;69.65